sensor_id;sensor_type;location;lat;lon;timestamp;temperature;humidity
63966;DHT22;50151;52.030;5.350;2023-08-06T00:00:54;15.40;99.90
63966;DHT22;50151;52.030;5.350;2023-08-06T00:03:21;15.50;99.90
63966;DHT22;50151;52.030;5.350;2023-08-06T00:05:48;15.50;99.90
63966;DHT22;50151;52.030;5.350;2023-08-06T00:08:15;15.50;99.90
63966;DHT22;50151;52.030;5.350;2023-08-06T00:10:42;15.50;99.90
63966;DHT22;50151;52.030;5.350;2023-08-06T00:13:08;15.50;99.90
63966;DHT22;50151;52.030;5.350;2023-08-06T00:15:35;15.50;99.90
63966;DHT22;50151;52.030;5.350;2023-08-06T00:18:02;15.60;99.90
63966;DHT22;50151;52.030;5.350;2023-08-06T00:20:29;15.60;99.90
63966;DHT22;50151;52.030;5.350;2023-08-06T00:22:55;15.50;99.90
63966;DHT22;50151;52.030;5.350;2023-08-06T00:25:22;15.50;99.90
63966;DHT22;50151;52.030;5.350;2023-08-06T00:27:49;15.50;99.90
63966;DHT22;50151;52.030;5.350;2023-08-06T00:30:15;15.50;99.90
63966;DHT22;50151;52.030;5.350;2023-08-06T00:32:42;15.50;99.90
63966;DHT22;50151;52.030;5.350;2023-08-06T00:35:09;15.50;99.90
63966;DHT22;50151;52.030;5.350;2023-08-06T00:37:36;15.50;99.90
63966;DHT22;50151;52.030;5.350;2023-08-06T00:40:03;15.50;99.90
63966;DHT22;50151;52.030;5.350;2023-08-06T00:42:30;15.50;99.90
63966;DHT22;50151;52.030;5.350;2023-08-06T00:44:56;15.50;99.90
63966;DHT22;50151;52.030;5.350;2023-08-06T00:47:23;15.50;99.90
63966;DHT22;50151;52.030;5.350;2023-08-06T00:49:50;15.50;99.90
63966;DHT22;50151;52.030;5.350;2023-08-06T00:52:17;15.50;99.90
63966;DHT22;50151;52.030;5.350;2023-08-06T00:54:44;15.50;99.90
63966;DHT22;50151;52.030;5.350;2023-08-06T00:57:11;15.50;99.90
63966;DHT22;50151;52.030;5.350;2023-08-06T00:59:38;15.50;99.90
63966;DHT22;50151;52.030;5.350;2023-08-06T01:02:05;15.50;99.90
63966;DHT22;50151;52.030;5.350;2023-08-06T01:04:33;15.50;99.90
63966;DHT22;50151;52.030;5.350;2023-08-06T01:14:55;15.50;99.90
63966;DHT22;50151;52.030;5.350;2023-08-06T01:17:25;15.50;99.90
63966;DHT22;50151;52.030;5.350;2023-08-06T01:19:53;15.50;99.90
63966;DHT22;50151;52.030;5.350;2023-08-06T01:22:20;15.50;99.90
63966;DHT22;50151;52.030;5.350;2023-08-06T01:24:48;15.50;99.90
63966;DHT22;50151;52.030;5.350;2023-08-06T01:27:49;15.50;99.90
63966;DHT22;50151;52.030;5.350;2023-08-06T01:30:27;15.50;99.90
63966;DHT22;50151;52.030;5.350;2023-08-06T01:32:59;15.40;99.90
63966;DHT22;50151;52.030;5.350;2023-08-06T01:35:30;15.40;99.90
63966;DHT22;50151;52.030;5.350;2023-08-06T01:37:57;15.50;99.90
63966;DHT22;50151;52.030;5.350;2023-08-06T01:40:25;15.40;99.90
63966;DHT22;50151;52.030;5.350;2023-08-06T01:42:53;15.50;99.90
63966;DHT22;50151;52.030;5.350;2023-08-06T01:45:20;15.50;99.90
63966;DHT22;50151;52.030;5.350;2023-08-06T01:47:47;15.40;99.90
63966;DHT22;50151;52.030;5.350;2023-08-06T01:50:14;15.40;99.90
63966;DHT22;50151;52.030;5.350;2023-08-06T01:52:41;15.40;99.90
63966;DHT22;50151;52.030;5.350;2023-08-06T01:55:08;15.40;99.90
63966;DHT22;50151;52.030;5.350;2023-08-06T01:57:34;15.40;99.90
63966;DHT22;50151;52.030;5.350;2023-08-06T02:00:01;15.50;99.90
63966;DHT22;50151;52.030;5.350;2023-08-06T02:02:28;15.50;99.90
63966;DHT22;50151;52.030;5.350;2023-08-06T02:04:54;15.50;99.90
63966;DHT22;50151;52.030;5.350;2023-08-06T02:07:21;15.40;99.90
63966;DHT22;50151;52.030;5.350;2023-08-06T02:09:48;15.40;99.90
63966;DHT22;50151;52.030;5.350;2023-08-06T02:12:14;15.40;99.90
63966;DHT22;50151;52.030;5.350;2023-08-06T02:14:41;15.40;99.90
63966;DHT22;50151;52.030;5.350;2023-08-06T02:17:08;15.40;99.90
63966;DHT22;50151;52.030;5.350;2023-08-06T02:19:34;15.40;99.90
63966;DHT22;50151;52.030;5.350;2023-08-06T02:22:01;15.40;99.90
63966;DHT22;50151;52.030;5.350;2023-08-06T02:24:28;15.40;99.90
63966;DHT22;50151;52.030;5.350;2023-08-06T02:26:55;15.40;99.90
63966;DHT22;50151;52.030;5.350;2023-08-06T02:29:22;15.40;99.90
63966;DHT22;50151;52.030;5.350;2023-08-06T02:31:49;15.40;99.90
63966;DHT22;50151;52.030;5.350;2023-08-06T02:34:16;15.40;99.90
63966;DHT22;50151;52.030;5.350;2023-08-06T02:36:42;15.40;99.90
63966;DHT22;50151;52.030;5.350;2023-08-06T02:39:10;15.40;99.90
63966;DHT22;50151;52.030;5.350;2023-08-06T02:41:36;15.40;99.90
63966;DHT22;50151;52.030;5.350;2023-08-06T02:44:03;15.40;99.90
63966;DHT22;50151;52.030;5.350;2023-08-06T02:46:30;15.30;99.90
63966;DHT22;50151;52.030;5.350;2023-08-06T02:48:57;15.40;99.90
63966;DHT22;50151;52.030;5.350;2023-08-06T02:51:23;15.40;99.90
63966;DHT22;50151;52.030;5.350;2023-08-06T02:53:50;15.40;99.90
63966;DHT22;50151;52.030;5.350;2023-08-06T02:56:17;15.40;99.90
63966;DHT22;50151;52.030;5.350;2023-08-06T02:58:43;15.40;99.90
63966;DHT22;50151;52.030;5.350;2023-08-06T03:01:10;15.40;99.90
63966;DHT22;50151;52.030;5.350;2023-08-06T03:03:37;15.40;99.90
63966;DHT22;50151;52.030;5.350;2023-08-06T03:06:04;15.40;99.90
63966;DHT22;50151;52.030;5.350;2023-08-06T03:08:31;15.40;99.90
63966;DHT22;50151;52.030;5.350;2023-08-06T03:10:57;15.40;99.90
63966;DHT22;50151;52.030;5.350;2023-08-06T03:13:24;15.40;99.90
63966;DHT22;50151;52.030;5.350;2023-08-06T03:15:52;15.40;99.90
63966;DHT22;50151;52.030;5.350;2023-08-06T03:18:20;15.40;99.90
63966;DHT22;50151;52.030;5.350;2023-08-06T03:20:48;15.50;99.90
63966;DHT22;50151;52.030;5.350;2023-08-06T03:23:15;15.40;99.90
63966;DHT22;50151;52.030;5.350;2023-08-06T03:25:42;15.40;99.90
63966;DHT22;50151;52.030;5.350;2023-08-06T03:28:08;15.40;99.90
63966;DHT22;50151;52.030;5.350;2023-08-06T03:30:35;15.40;99.90
63966;DHT22;50151;52.030;5.350;2023-08-06T03:33:02;15.40;99.90
63966;DHT22;50151;52.030;5.350;2023-08-06T03:35:29;15.40;99.90
63966;DHT22;50151;52.030;5.350;2023-08-06T03:37:55;15.50;99.90
63966;DHT22;50151;52.030;5.350;2023-08-06T03:40:22;15.40;99.90
63966;DHT22;50151;52.030;5.350;2023-08-06T03:42:49;15.50;99.90
63966;DHT22;50151;52.030;5.350;2023-08-06T03:45:16;15.50;99.90
63966;DHT22;50151;52.030;5.350;2023-08-06T03:47:43;15.50;99.90
63966;DHT22;50151;52.030;5.350;2023-08-06T03:50:09;15.50;99.90
63966;DHT22;50151;52.030;5.350;2023-08-06T03:52:36;15.50;99.90
63966;DHT22;50151;52.030;5.350;2023-08-06T03:55:03;15.50;99.90
63966;DHT22;50151;52.030;5.350;2023-08-06T03:57:30;15.50;99.90
63966;DHT22;50151;52.030;5.350;2023-08-06T03:59:57;15.50;99.90
63966;DHT22;50151;52.030;5.350;2023-08-06T04:02:24;15.50;99.90
63966;DHT22;50151;52.030;5.350;2023-08-06T04:04:57;15.50;99.90
63966;DHT22;50151;52.030;5.350;2023-08-06T04:07:26;15.50;99.90
63966;DHT22;50151;52.030;5.350;2023-08-06T04:09:57;15.50;99.90
63966;DHT22;50151;52.030;5.350;2023-08-06T04:12:24;15.50;99.90
63966;DHT22;50151;52.030;5.350;2023-08-06T04:14:51;15.50;99.90
63966;DHT22;50151;52.030;5.350;2023-08-06T04:17:19;15.40;99.90
63966;DHT22;50151;52.030;5.350;2023-08-06T04:19:48;15.40;99.90
63966;DHT22;50151;52.030;5.350;2023-08-06T04:22:15;15.40;99.90
63966;DHT22;50151;52.030;5.350;2023-08-06T04:24:43;15.50;99.90
63966;DHT22;50151;52.030;5.350;2023-08-06T04:27:10;15.40;99.90
63966;DHT22;50151;52.030;5.350;2023-08-06T04:29:37;15.50;99.90
63966;DHT22;50151;52.030;5.350;2023-08-06T04:32:07;15.50;99.90
63966;DHT22;50151;52.030;5.350;2023-08-06T04:34:35;15.50;99.90
63966;DHT22;50151;52.030;5.350;2023-08-06T04:37:02;15.50;99.90
63966;DHT22;50151;52.030;5.350;2023-08-06T04:39:30;15.40;99.90
63966;DHT22;50151;52.030;5.350;2023-08-06T04:41:56;15.50;99.90
63966;DHT22;50151;52.030;5.350;2023-08-06T04:44:26;15.50;99.90
63966;DHT22;50151;52.030;5.350;2023-08-06T04:46:53;15.50;99.90
63966;DHT22;50151;52.030;5.350;2023-08-06T04:49:20;15.50;99.90
63966;DHT22;50151;52.030;5.350;2023-08-06T04:51:47;15.50;99.90
63966;DHT22;50151;52.030;5.350;2023-08-06T04:54:14;15.50;99.90
63966;DHT22;50151;52.030;5.350;2023-08-06T04:56:41;15.50;99.90
63966;DHT22;50151;52.030;5.350;2023-08-06T04:59:07;15.50;99.90
63966;DHT22;50151;52.030;5.350;2023-08-06T05:01:34;15.50;99.90
63966;DHT22;50151;52.030;5.350;2023-08-06T05:04:01;15.60;99.90
63966;DHT22;50151;52.030;5.350;2023-08-06T05:06:28;15.50;99.90
63966;DHT22;50151;52.030;5.350;2023-08-06T05:08:54;15.60;99.90
63966;DHT22;50151;52.030;5.350;2023-08-06T05:11:21;15.50;99.90
63966;DHT22;50151;52.030;5.350;2023-08-06T05:13:48;15.50;99.90
63966;DHT22;50151;52.030;5.350;2023-08-06T05:16:15;15.50;99.90
63966;DHT22;50151;52.030;5.350;2023-08-06T05:18:41;15.50;99.90
63966;DHT22;50151;52.030;5.350;2023-08-06T05:21:08;15.50;99.90
63966;DHT22;50151;52.030;5.350;2023-08-06T05:23:35;15.60;99.90
63966;DHT22;50151;52.030;5.350;2023-08-06T05:26:02;15.50;99.90
63966;DHT22;50151;52.030;5.350;2023-08-06T05:28:28;15.50;99.90
63966;DHT22;50151;52.030;5.350;2023-08-06T05:30:55;15.60;99.90
63966;DHT22;50151;52.030;5.350;2023-08-06T05:33:22;15.50;99.90
63966;DHT22;50151;52.030;5.350;2023-08-06T05:35:49;15.50;99.90
63966;DHT22;50151;52.030;5.350;2023-08-06T05:38:16;15.50;99.90
63966;DHT22;50151;52.030;5.350;2023-08-06T05:40:44;15.50;99.90
63966;DHT22;50151;52.030;5.350;2023-08-06T05:43:11;15.50;99.90
63966;DHT22;50151;52.030;5.350;2023-08-06T05:45:37;15.50;99.90
63966;DHT22;50151;52.030;5.350;2023-08-06T05:48:04;15.60;99.90
63966;DHT22;50151;52.030;5.350;2023-08-06T05:50:31;15.50;99.90
63966;DHT22;50151;52.030;5.350;2023-08-06T05:52:58;15.60;99.90
63966;DHT22;50151;52.030;5.350;2023-08-06T05:55:27;15.60;99.90
63966;DHT22;50151;52.030;5.350;2023-08-06T05:57:54;15.60;99.90
63966;DHT22;50151;52.030;5.350;2023-08-06T06:00:22;15.60;99.90
63966;DHT22;50151;52.030;5.350;2023-08-06T06:02:48;15.60;99.90
63966;DHT22;50151;52.030;5.350;2023-08-06T06:05:15;15.60;99.90
63966;DHT22;50151;52.030;5.350;2023-08-06T06:07:43;15.60;99.90
63966;DHT22;50151;52.030;5.350;2023-08-06T06:10:10;15.60;99.90
63966;DHT22;50151;52.030;5.350;2023-08-06T06:12:38;15.60;99.90
63966;DHT22;50151;52.030;5.350;2023-08-06T06:15:05;15.60;99.90
63966;DHT22;50151;52.030;5.350;2023-08-06T06:17:32;15.70;99.90
63966;DHT22;50151;52.030;5.350;2023-08-06T06:19:59;15.70;99.90
63966;DHT22;50151;52.030;5.350;2023-08-06T06:22:26;15.60;99.90
63966;DHT22;50151;52.030;5.350;2023-08-06T06:24:53;15.70;99.90
63966;DHT22;50151;52.030;5.350;2023-08-06T06:27:19;15.60;99.90
63966;DHT22;50151;52.030;5.350;2023-08-06T06:29:46;15.70;99.90
63966;DHT22;50151;52.030;5.350;2023-08-06T06:32:13;15.60;99.90
63966;DHT22;50151;52.030;5.350;2023-08-06T06:34:40;15.70;99.90
63966;DHT22;50151;52.030;5.350;2023-08-06T06:37:06;15.70;99.90
63966;DHT22;50151;52.030;5.350;2023-08-06T06:39:33;15.70;99.90
63966;DHT22;50151;52.030;5.350;2023-08-06T06:41:59;15.70;99.90
63966;DHT22;50151;52.030;5.350;2023-08-06T06:44:26;15.60;99.90
63966;DHT22;50151;52.030;5.350;2023-08-06T06:46:53;15.60;99.90
63966;DHT22;50151;52.030;5.350;2023-08-06T06:49:20;15.60;99.90
63966;DHT22;50151;52.030;5.350;2023-08-06T06:51:47;15.60;99.90
63966;DHT22;50151;52.030;5.350;2023-08-06T06:54:13;15.60;99.90
63966;DHT22;50151;52.030;5.350;2023-08-06T06:56:40;15.60;99.90
63966;DHT22;50151;52.030;5.350;2023-08-06T06:59:07;15.70;99.90
63966;DHT22;50151;52.030;5.350;2023-08-06T07:01:33;15.70;99.90
63966;DHT22;50151;52.030;5.350;2023-08-06T07:04:00;15.70;99.90
63966;DHT22;50151;52.030;5.350;2023-08-06T07:06:31;15.70;99.90
63966;DHT22;50151;52.030;5.350;2023-08-06T07:08:58;15.80;99.90
63966;DHT22;50151;52.030;5.350;2023-08-06T07:11:25;15.70;99.90
63966;DHT22;50151;52.030;5.350;2023-08-06T07:13:58;15.70;99.90
63966;DHT22;50151;52.030;5.350;2023-08-06T07:16:25;15.70;99.90
63966;DHT22;50151;52.030;5.350;2023-08-06T07:18:53;15.60;99.90
63966;DHT22;50151;52.030;5.350;2023-08-06T07:21:21;15.60;99.90
63966;DHT22;50151;52.030;5.350;2023-08-06T07:23:48;15.60;99.90
63966;DHT22;50151;52.030;5.350;2023-08-06T07:26:17;15.50;99.90
63966;DHT22;50151;52.030;5.350;2023-08-06T07:28:43;15.50;99.90
63966;DHT22;50151;52.030;5.350;2023-08-06T07:31:11;15.40;99.90
63966;DHT22;50151;52.030;5.350;2023-08-06T07:33:39;15.40;99.90
63966;DHT22;50151;52.030;5.350;2023-08-06T07:36:13;15.30;99.90
63966;DHT22;50151;52.030;5.350;2023-08-06T07:38:40;15.30;99.90
63966;DHT22;50151;52.030;5.350;2023-08-06T07:41:08;15.30;99.90
63966;DHT22;50151;52.030;5.350;2023-08-06T07:43:35;15.20;99.90
63966;DHT22;50151;52.030;5.350;2023-08-06T07:46:03;15.20;99.90
63966;DHT22;50151;52.030;5.350;2023-08-06T07:48:30;15.20;99.90
63966;DHT22;50151;52.030;5.350;2023-08-06T07:50:57;15.10;99.90
63966;DHT22;50151;52.030;5.350;2023-08-06T07:53:25;15.00;99.90
63966;DHT22;50151;52.030;5.350;2023-08-06T07:55:58;15.00;99.90
63966;DHT22;50151;52.030;5.350;2023-08-06T07:58:25;15.00;99.90
63966;DHT22;50151;52.030;5.350;2023-08-06T08:00:52;14.90;99.90
63966;DHT22;50151;52.030;5.350;2023-08-06T08:03:19;14.90;99.90
63966;DHT22;50151;52.030;5.350;2023-08-06T08:05:46;14.80;99.90
63966;DHT22;50151;52.030;5.350;2023-08-06T08:08:13;14.80;99.90
63966;DHT22;50151;52.030;5.350;2023-08-06T08:10:41;14.60;99.90
63966;DHT22;50151;52.030;5.350;2023-08-06T08:13:08;14.60;99.90
63966;DHT22;50151;52.030;5.350;2023-08-06T08:15:35;14.60;99.90
63966;DHT22;50151;52.030;5.350;2023-08-06T08:18:01;14.50;99.90
63966;DHT22;50151;52.030;5.350;2023-08-06T08:20:28;14.50;99.90
63966;DHT22;50151;52.030;5.350;2023-08-06T08:22:59;14.50;99.90
63966;DHT22;50151;52.030;5.350;2023-08-06T08:25:27;14.60;99.90
63966;DHT22;50151;52.030;5.350;2023-08-06T08:27:57;14.40;99.90
63966;DHT22;50151;52.030;5.350;2023-08-06T08:30:24;14.40;99.90
63966;DHT22;50151;52.030;5.350;2023-08-06T08:32:53;14.30;99.90
63966;DHT22;50151;52.030;5.350;2023-08-06T08:35:20;14.30;99.90
63966;DHT22;50151;52.030;5.350;2023-08-06T08:37:46;14.30;99.90
63966;DHT22;50151;52.030;5.350;2023-08-06T08:40:14;14.30;99.90
63966;DHT22;50151;52.030;5.350;2023-08-06T08:42:42;14.10;99.90
63966;DHT22;50151;52.030;5.350;2023-08-06T08:45:13;14.00;99.90
63966;DHT22;50151;52.030;5.350;2023-08-06T08:47:44;14.10;99.90
63966;DHT22;50151;52.030;5.350;2023-08-06T08:50:11;14.00;99.90
63966;DHT22;50151;52.030;5.350;2023-08-06T08:52:39;14.10;99.90
63966;DHT22;50151;52.030;5.350;2023-08-06T08:55:07;14.10;99.90
63966;DHT22;50151;52.030;5.350;2023-08-06T08:57:34;14.10;99.90
63966;DHT22;50151;52.030;5.350;2023-08-06T09:00:01;14.20;99.90
63966;DHT22;50151;52.030;5.350;2023-08-06T09:02:29;14.20;99.90
63966;DHT22;50151;52.030;5.350;2023-08-06T09:05:01;14.10;99.90
63966;DHT22;50151;52.030;5.350;2023-08-06T09:07:43;14.20;99.90
63966;DHT22;50151;52.030;5.350;2023-08-06T09:10:14;14.20;99.90
63966;DHT22;50151;52.030;5.350;2023-08-06T09:12:42;14.30;99.90
63966;DHT22;50151;52.030;5.350;2023-08-06T09:15:09;14.30;99.90
63966;DHT22;50151;52.030;5.350;2023-08-06T09:17:37;14.30;99.90
63966;DHT22;50151;52.030;5.350;2023-08-06T09:20:13;14.30;99.90
63966;DHT22;50151;52.030;5.350;2023-08-06T09:22:41;14.40;99.90
63966;DHT22;50151;52.030;5.350;2023-08-06T09:25:08;14.40;99.90
63966;DHT22;50151;52.030;5.350;2023-08-06T09:27:40;14.50;99.90
63966;DHT22;50151;52.030;5.350;2023-08-06T09:30:07;14.50;99.90
63966;DHT22;50151;52.030;5.350;2023-08-06T09:32:47;14.50;99.90
63966;DHT22;50151;52.030;5.350;2023-08-06T09:35:17;14.50;99.90
63966;DHT22;50151;52.030;5.350;2023-08-06T09:37:44;14.60;99.90
63966;DHT22;50151;52.030;5.350;2023-08-06T09:40:33;14.70;99.90
63966;DHT22;50151;52.030;5.350;2023-08-06T09:43:00;14.70;99.90
63966;DHT22;50151;52.030;5.350;2023-08-06T09:45:36;14.70;99.90
63966;DHT22;50151;52.030;5.350;2023-08-06T09:48:05;14.70;99.90
63966;DHT22;50151;52.030;5.350;2023-08-06T09:50:33;14.70;99.90
63966;DHT22;50151;52.030;5.350;2023-08-06T09:53:04;14.80;99.90
63966;DHT22;50151;52.030;5.350;2023-08-06T09:55:32;14.80;99.90
63966;DHT22;50151;52.030;5.350;2023-08-06T09:57:59;14.90;99.90
63966;DHT22;50151;52.030;5.350;2023-08-06T10:00:27;14.90;99.90
63966;DHT22;50151;52.030;5.350;2023-08-06T10:02:55;14.90;99.90
63966;DHT22;50151;52.030;5.350;2023-08-06T10:05:26;15.00;99.90
63966;DHT22;50151;52.030;5.350;2023-08-06T10:07:53;15.00;99.90
63966;DHT22;50151;52.030;5.350;2023-08-06T10:10:23;15.00;99.90
63966;DHT22;50151;52.030;5.350;2023-08-06T10:12:55;15.00;99.90
63966;DHT22;50151;52.030;5.350;2023-08-06T10:15:25;15.00;99.90
63966;DHT22;50151;52.030;5.350;2023-08-06T10:17:56;15.00;99.90
63966;DHT22;50151;52.030;5.350;2023-08-06T10:20:23;15.10;99.90
63966;DHT22;50151;52.030;5.350;2023-08-06T10:23:01;15.20;99.90
63966;DHT22;50151;52.030;5.350;2023-08-06T10:25:31;15.20;99.90
63966;DHT22;50151;52.030;5.350;2023-08-06T10:28:00;15.10;99.90
63966;DHT22;50151;52.030;5.350;2023-08-06T10:30:28;15.20;99.90
63966;DHT22;50151;52.030;5.350;2023-08-06T10:33:03;15.20;99.90
63966;DHT22;50151;52.030;5.350;2023-08-06T10:38:18;15.10;99.90
63966;DHT22;50151;52.030;5.350;2023-08-06T10:43:33;15.20;99.90
63966;DHT22;50151;52.030;5.350;2023-08-06T10:46:02;15.30;99.90
63966;DHT22;50151;52.030;5.350;2023-08-06T10:48:38;15.20;99.90
63966;DHT22;50151;52.030;5.350;2023-08-06T10:51:11;15.20;99.90
63966;DHT22;50151;52.030;5.350;2023-08-06T10:53:42;15.20;99.90
63966;DHT22;50151;52.030;5.350;2023-08-06T10:56:16;15.20;99.90
63966;DHT22;50151;52.030;5.350;2023-08-06T10:58:44;15.30;99.90
63966;DHT22;50151;52.030;5.350;2023-08-06T11:01:11;15.30;99.90
63966;DHT22;50151;52.030;5.350;2023-08-06T11:03:39;15.40;99.90
63966;DHT22;50151;52.030;5.350;2023-08-06T11:06:09;15.40;99.90
63966;DHT22;50151;52.030;5.350;2023-08-06T11:08:40;15.40;99.90
63966;DHT22;50151;52.030;5.350;2023-08-06T11:11:12;15.40;99.90
63966;DHT22;50151;52.030;5.350;2023-08-06T11:13:50;15.40;99.90
63966;DHT22;50151;52.030;5.350;2023-08-06T11:16:19;15.40;99.90
63966;DHT22;50151;52.030;5.350;2023-08-06T11:18:46;15.50;99.90
63966;DHT22;50151;52.030;5.350;2023-08-06T11:21:14;15.60;99.90
63966;DHT22;50151;52.030;5.350;2023-08-06T11:23:44;15.60;99.90
63966;DHT22;50151;52.030;5.350;2023-08-06T11:26:11;15.60;99.90
63966;DHT22;50151;52.030;5.350;2023-08-06T11:28:40;15.80;99.90
63966;DHT22;50151;52.030;5.350;2023-08-06T11:31:19;15.80;99.90
63966;DHT22;50151;52.030;5.350;2023-08-06T11:33:45;15.90;99.90
63966;DHT22;50151;52.030;5.350;2023-08-06T11:36:12;15.90;99.90
63966;DHT22;50151;52.030;5.350;2023-08-06T11:38:39;16.00;99.90
63966;DHT22;50151;52.030;5.350;2023-08-06T11:41:06;15.90;99.90
63966;DHT22;50151;52.030;5.350;2023-08-06T11:43:33;15.90;99.90
63966;DHT22;50151;52.030;5.350;2023-08-06T11:46:00;16.00;99.90
63966;DHT22;50151;52.030;5.350;2023-08-06T11:48:27;15.80;99.90
63966;DHT22;50151;52.030;5.350;2023-08-06T11:50:54;16.00;99.90
63966;DHT22;50151;52.030;5.350;2023-08-06T11:53:21;16.00;99.90
63966;DHT22;50151;52.030;5.350;2023-08-06T11:55:48;16.00;99.90
63966;DHT22;50151;52.030;5.350;2023-08-06T11:58:17;16.00;99.90
63966;DHT22;50151;52.030;5.350;2023-08-06T12:00:45;16.00;99.90
63966;DHT22;50151;52.030;5.350;2023-08-06T12:03:11;16.00;99.90
63966;DHT22;50151;52.030;5.350;2023-08-06T12:05:38;16.00;99.90
63966;DHT22;50151;52.030;5.350;2023-08-06T12:08:05;16.00;99.90
63966;DHT22;50151;52.030;5.350;2023-08-06T12:10:32;16.00;99.90
63966;DHT22;50151;52.030;5.350;2023-08-06T12:13:00;16.00;99.90
63966;DHT22;50151;52.030;5.350;2023-08-06T12:15:27;16.00;99.90
63966;DHT22;50151;52.030;5.350;2023-08-06T12:17:55;15.90;99.90
63966;DHT22;50151;52.030;5.350;2023-08-06T12:20:21;16.00;99.90
63966;DHT22;50151;52.030;5.350;2023-08-06T12:22:48;15.90;99.90
63966;DHT22;50151;52.030;5.350;2023-08-06T12:25:16;15.90;99.90
63966;DHT22;50151;52.030;5.350;2023-08-06T12:27:43;15.90;99.90
63966;DHT22;50151;52.030;5.350;2023-08-06T12:30:12;15.90;99.90
63966;DHT22;50151;52.030;5.350;2023-08-06T12:32:39;15.90;99.90
63966;DHT22;50151;52.030;5.350;2023-08-06T12:35:07;15.80;99.90
63966;DHT22;50151;52.030;5.350;2023-08-06T12:37:35;15.80;99.90
63966;DHT22;50151;52.030;5.350;2023-08-06T12:40:03;15.80;99.90
63966;DHT22;50151;52.030;5.350;2023-08-06T12:42:50;15.80;99.90
63966;DHT22;50151;52.030;5.350;2023-08-06T12:45:17;15.80;99.90
63966;DHT22;50151;52.030;5.350;2023-08-06T12:47:47;15.90;99.90
63966;DHT22;50151;52.030;5.350;2023-08-06T12:50:15;15.90;99.90
63966;DHT22;50151;52.030;5.350;2023-08-06T12:52:45;15.90;99.90
63966;DHT22;50151;52.030;5.350;2023-08-06T12:55:12;15.90;99.90
63966;DHT22;50151;52.030;5.350;2023-08-06T12:57:39;15.90;99.90
63966;DHT22;50151;52.030;5.350;2023-08-06T13:00:24;16.00;99.90
63966;DHT22;50151;52.030;5.350;2023-08-06T13:02:51;16.00;99.90
63966;DHT22;50151;52.030;5.350;2023-08-06T13:05:19;15.90;99.90
63966;DHT22;50151;52.030;5.350;2023-08-06T13:07:46;15.90;99.90
63966;DHT22;50151;52.030;5.350;2023-08-06T13:10:13;15.90;99.90
63966;DHT22;50151;52.030;5.350;2023-08-06T13:12:40;15.90;99.90
63966;DHT22;50151;52.030;5.350;2023-08-06T13:15:07;15.90;99.90
63966;DHT22;50151;52.030;5.350;2023-08-06T13:17:34;15.80;99.90
63966;DHT22;50151;52.030;5.350;2023-08-06T13:20:01;15.90;99.90
63966;DHT22;50151;52.030;5.350;2023-08-06T13:22:28;15.90;99.90
63966;DHT22;50151;52.030;5.350;2023-08-06T13:24:54;15.90;99.90
63966;DHT22;50151;52.030;5.350;2023-08-06T13:27:21;16.00;99.90
63966;DHT22;50151;52.030;5.350;2023-08-06T13:29:48;15.90;99.90
63966;DHT22;50151;52.030;5.350;2023-08-06T13:32:15;16.00;99.90
63966;DHT22;50151;52.030;5.350;2023-08-06T13:34:41;15.90;99.90
63966;DHT22;50151;52.030;5.350;2023-08-06T13:37:08;15.90;99.90
63966;DHT22;50151;52.030;5.350;2023-08-06T13:39:35;15.90;99.90
63966;DHT22;50151;52.030;5.350;2023-08-06T13:42:01;15.90;99.90
63966;DHT22;50151;52.030;5.350;2023-08-06T13:44:28;16.00;99.90
63966;DHT22;50151;52.030;5.350;2023-08-06T13:46:55;16.00;99.90
63966;DHT22;50151;52.030;5.350;2023-08-06T13:49:22;15.90;99.90
63966;DHT22;50151;52.030;5.350;2023-08-06T13:51:49;15.90;99.90
63966;DHT22;50151;52.030;5.350;2023-08-06T13:54:16;16.00;99.90
63966;DHT22;50151;52.030;5.350;2023-08-06T13:56:43;15.90;99.90
63966;DHT22;50151;52.030;5.350;2023-08-06T13:59:10;15.80;99.90
63966;DHT22;50151;52.030;5.350;2023-08-06T14:01:40;15.80;99.90
63966;DHT22;50151;52.030;5.350;2023-08-06T14:04:16;16.00;99.90
63966;DHT22;50151;52.030;5.350;2023-08-06T14:06:43;15.90;99.90
63966;DHT22;50151;52.030;5.350;2023-08-06T14:09:10;16.00;99.90
63966;DHT22;50151;52.030;5.350;2023-08-06T14:11:39;16.00;99.90
63966;DHT22;50151;52.030;5.350;2023-08-06T14:14:05;16.00;99.90
63966;DHT22;50151;52.030;5.350;2023-08-06T14:16:32;16.00;99.90
63966;DHT22;50151;52.030;5.350;2023-08-06T14:18:59;16.10;99.90
63966;DHT22;50151;52.030;5.350;2023-08-06T14:21:25;16.10;99.90
63966;DHT22;50151;52.030;5.350;2023-08-06T14:23:52;16.10;99.90
63966;DHT22;50151;52.030;5.350;2023-08-06T14:26:19;16.10;99.90
63966;DHT22;50151;52.030;5.350;2023-08-06T14:28:46;16.10;99.90
63966;DHT22;50151;52.030;5.350;2023-08-06T14:31:13;16.10;99.90
63966;DHT22;50151;52.030;5.350;2023-08-06T14:33:40;16.00;99.90
63966;DHT22;50151;52.030;5.350;2023-08-06T14:36:07;16.00;99.90
63966;DHT22;50151;52.030;5.350;2023-08-06T14:38:33;16.10;99.90
63966;DHT22;50151;52.030;5.350;2023-08-06T14:41:12;16.10;99.90
63966;DHT22;50151;52.030;5.350;2023-08-06T14:43:38;16.10;99.90
63966;DHT22;50151;52.030;5.350;2023-08-06T14:46:05;16.10;99.90
63966;DHT22;50151;52.030;5.350;2023-08-06T14:48:32;16.10;99.90
63966;DHT22;50151;52.030;5.350;2023-08-06T14:50:59;16.10;99.90
63966;DHT22;50151;52.030;5.350;2023-08-06T14:53:26;16.10;99.90
63966;DHT22;50151;52.030;5.350;2023-08-06T14:55:54;16.10;99.90
63966;DHT22;50151;52.030;5.350;2023-08-06T14:58:20;16.10;99.90
63966;DHT22;50151;52.030;5.350;2023-08-06T15:00:47;16.10;99.90
63966;DHT22;50151;52.030;5.350;2023-08-06T15:03:14;16.20;99.90
63966;DHT22;50151;52.030;5.350;2023-08-06T15:05:43;16.20;99.90
63966;DHT22;50151;52.030;5.350;2023-08-06T15:08:11;15.90;99.90
63966;DHT22;50151;52.030;5.350;2023-08-06T15:10:38;16.00;99.90
63966;DHT22;50151;52.030;5.350;2023-08-06T15:13:05;15.80;99.90
63966;DHT22;50151;52.030;5.350;2023-08-06T15:15:31;15.80;99.90
63966;DHT22;50151;52.030;5.350;2023-08-06T15:17:58;15.80;99.90
63966;DHT22;50151;52.030;5.350;2023-08-06T15:20:25;15.70;99.90
63966;DHT22;50151;52.030;5.350;2023-08-06T15:22:52;15.50;99.90
63966;DHT22;50151;52.030;5.350;2023-08-06T15:25:19;15.50;99.90
63966;DHT22;50151;52.030;5.350;2023-08-06T15:27:45;15.30;99.90
63966;DHT22;50151;52.030;5.350;2023-08-06T15:30:12;15.40;99.90
63966;DHT22;50151;52.030;5.350;2023-08-06T15:32:39;15.40;99.90
63966;DHT22;50151;52.030;5.350;2023-08-06T15:35:11;15.30;99.90
63966;DHT22;50151;52.030;5.350;2023-08-06T15:37:38;15.40;99.90
63966;DHT22;50151;52.030;5.350;2023-08-06T15:40:09;15.40;99.90
63966;DHT22;50151;52.030;5.350;2023-08-06T15:42:36;15.40;99.90
63966;DHT22;50151;52.030;5.350;2023-08-06T15:45:03;15.40;99.90
63966;DHT22;50151;52.030;5.350;2023-08-06T15:47:30;15.50;99.90